Time;durP1;ratioP1;P1;durP2;ratioP2;P2;SDS_P1;SDS_P2;PMS_P1;PMS_P2;Temp;Humidity;BMP_temperature;BMP_pressure;BME280_temperature;BME280_humidity;BME280_pressure;Samples;Min_cycle;Max_cycle;Signal;HPM_P1;HPM_P2
2023/01/31 00:01:46;;;;;;;8.70;1.60;;;;;;;1.99;100.00;98646.55;104504;1295;22593;-35
2023/01/31 00:04:11;;;;;;;5.20;1.20;;;;;;;2.08;100.00;98653.98;104473;1305;22780;-32
2023/01/31 00:06:40;;;;;;;8.50;2.10;;;;;;;2.03;100.00;98651.65;104596;1302;22745;-35
2023/01/31 00:09:06;;;;;;;3.60;0.90;;;;;;;1.91;100.00;98651.64;104637;1301;22715;-36
2023/01/31 00:11:32;;;;;;;4.80;1.10;;;;;;;2.00;100.00;98652.17;104586;1295;23000;-33
2023/01/31 00:13:58;;;;;;;8.60;2.20;;;;;;;1.99;100.00;98646.45;104702;1299;22991;-36
2023/01/31 00:16:24;;;;;;;14.00;0.70;;;;;;;2.05;100.00;98652.88;103869;1305;1003135;-33
2023/01/31 00:18:50;;;;;;;6.50;0.80;;;;;;;1.97;100.00;98648.58;104472;1305;24439;-35
2023/01/31 00:21:23;;;;;;;5.10;0.90;;;;;;;2.01;100.00;98652.73;104622;1292;22798;-36
2023/01/31 00:23:49;;;;;;;9.00;1.20;;;;;;;2.10;100.00;98657.07;104616;1301;22787;-34
2023/01/31 00:26:20;;;;;;;3.20;0.80;;;;;;;1.94;100.00;98647.26;104612;1304;22810;-31
2023/01/31 00:28:47;;;;;;;4.90;1.30;;;;;;;1.87;100.00;98651.77;104715;1301;23293;-34
2023/01/31 00:31:13;;;;;;;6.80;1.30;;;;;;;2.02;100.00;98661.25;104775;1305;22563;-30
2023/01/31 00:33:40;;;;;;;18.40;1.80;;;;;;;2.23;100.00;98658.52;104695;1305;22647;-31
2023/01/31 00:36:07;;;;;;;7.20;1.60;;;;;;;2.32;100.00;98663.63;104764;1302;22838;-34
2023/01/31 00:38:33;;;;;;;9.80;2.00;;;;;;;2.37;100.00;98664.52;104612;1304;22670;-31
2023/01/31 00:40:59;;;;;;;10.30;1.80;;;;;;;2.33;100.00;98660.48;104751;1305;24401;-35
2023/01/31 00:43:25;;;;;;;8.00;0.80;;;;;;;2.40;100.00;98671.20;104613;1305;23016;-33
2023/01/31 00:45:51;;;;;;;7.70;2.00;;;;;;;2.38;100.00;98679.73;104692;1302;22647;-34
2023/01/31 00:48:17;;;;;;;4.20;1.80;;;;;;;2.26;100.00;98668.44;104710;1298;22786;-34
2023/01/31 00:50:42;;;;;;;8.20;0.90;;;;;;;2.24;100.00;98683.11;104742;1301;24292;-36
2023/01/31 00:53:08;;;;;;;10.80;1.40;;;;;;;2.15;100.00;98680.08;104646;1301;24355;-31
2023/01/31 00:55:34;;;;;;;14.30;1.40;;;;;;;2.18;100.00;98697.75;104610;1301;22830;-30
2023/01/31 00:58:00;;;;;;;2.70;0.60;;;;;;;2.14;100.00;98696.63;104553;1305;24407;-30
2023/01/31 01:00:26;;;;;;;4.20;1.00;;;;;;;2.01;100.00;98692.23;104640;1282;22556;-30
2023/01/31 01:02:52;;;;;;;7.20;1.00;;;;;;;1.95;100.00;98697.66;104622;1305;22664;-32
2023/01/31 01:05:17;;;;;;;8.20;2.40;;;;;;;1.94;100.00;98695.28;104755;1304;22795;-32
2023/01/31 01:07:43;;;;;;;1.90;0.90;;;;;;;1.91;100.00;98693.68;104687;1305;24505;-35
2023/01/31 01:10:10;;;;;;;9.60;0.90;;;;;;;1.81;100.00;98703.14;104613;1301;22687;-35
2023/01/31 01:12:35;;;;;;;6.20;1.70;;;;;;;1.90;100.00;98704.59;104652;1301;24205;-34
2023/01/31 01:15:01;;;;;;;2.80;0.70;;;;;;;1.90;100.00;98708.14;104711;1302;22645;-33
2023/01/31 01:17:27;;;;;;;14.00;1.60;;;;;;;1.78;100.00;98716.69;104803;1305;23029;-31
2023/01/31 01:19:53;;;;;;;3.20;0.90;;;;;;;1.78;100.00;98721.88;104707;1302;23059;-30
2023/01/31 01:22:18;;;;;;;8.50;1.50;;;;;;;1.74;100.00;98694.00;104726;1301;22678;-30
2023/01/31 01:24:44;;;;;;;6.50;1.00;;;;;;;1.57;100.00;98709.05;104772;1301;23159;-34
2023/01/31 01:27:10;;;;;;;19.10;0.90;;;;;;;1.50;100.00;98723.09;104607;1301;22819;-31
2023/01/31 01:29:36;;;;;;;5.90;1.20;;;;;;;1.39;100.00;98725.63;104751;1299;22663;-34
2023/01/31 01:32:02;;;;;;;6.90;1.10;;;;;;;1.37;100.00;98729.86;104675;1301;24238;-31
2023/01/31 01:34:28;;;;;;;6.20;0.90;;;;;;;1.29;100.00;98733.86;104764;1302;23035;-34
2023/01/31 01:36:53;;;;;;;14.40;2.00;;;;;;;1.27;100.00;98736.33;104564;1301;22629;-34
2023/01/31 01:39:19;;;;;;;15.60;2.80;;;;;;;1.29;100.00;98742.63;104686;1301;24282;-34
2023/01/31 01:41:45;;;;;;;9.80;1.80;;;;;;;1.31;100.00;98744.10;104840;1302;22995;-32
2023/01/31 01:44:35;;;;;;;7.90;0.70;;;;;;;1.42;100.00;98745.97;104699;1305;23042;-33
2023/01/31 01:47:00;;;;;;;6.70;1.50;;;;;;;1.34;100.00;98747.43;104712;1305;22562;-31
2023/01/31 01:49:32;;;;;;;8.40;1.40;;;;;;;1.33;100.00;98752.87;104397;1305;22631;-30
2023/01/31 01:51:59;;;;;;;7.20;1.30;;;;;;;1.29;100.00;98759.92;104769;1305;22901;-30
2023/01/31 01:54:29;;;;;;;5.40;1.30;;;;;;;1.32;100.00;98753.00;104684;1305;22632;-33
2023/01/31 01:56:56;;;;;;;5.90;0.80;;;;;;;1.62;100.00;98756.46;104790;1302;22821;-33
2023/01/31 01:59:30;;;;;;;4.10;0.80;;;;;;;1.77;100.00;98756.16;104708;1304;23027;-30
2023/01/31 02:01:56;;;;;;;6.40;0.80;;;;;;;1.66;100.00;98761.87;104661;1305;23216;-31
2023/01/31 02:04:24;;;;;;;28.30;2.40;;;;;;;1.52;100.00;98757.88;104716;1302;22634;-34
2023/01/31 02:06:50;;;;;;;3.70;0.90;;;;;;;1.63;100.00;98754.59;104778;1304;24285;-31
2023/01/31 02:09:31;;;;;;;5.90;0.60;;;;;;;1.40;100.00;98755.88;104727;1298;22669;-34
2023/01/31 02:11:57;;;;;;;15.50;1.60;;;;;;;1.23;100.00;98753.69;104695;1305;23320;-32
2023/01/31 02:14:23;;;;;;;5.60;1.10;;;;;;;1.13;100.00;98763.82;104779;1299;23023;-31
2023/01/31 02:16:49;;;;;;;3.80;0.80;;;;;;;1.23;100.00;98776.27;104717;1302;23039;-35
2023/01/31 02:19:37;;;;;;;22.40;0.70;;;;;;;1.12;100.00;98793.27;104694;1301;23159;-34
2023/01/31 02:22:14;;;;;;;11.40;0.20;;;;;;;1.12;100.00;98791.58;104741;1302;22603;-31
2023/01/31 02:25:07;;;;;;;13.30;0.90;;;;;;;1.03;100.00;98801.85;104637;1301;22695;-31
2023/01/31 02:27:48;;;;;;;2.00;1.00;;;;;;;1.12;100.00;98802.09;104675;1301;22669;-31
2023/01/31 02:30:38;;;;;;;12.50;0.70;;;;;;;1.19;100.00;98801.16;104667;1305;23147;-34
2023/01/31 02:33:25;;;;;;;5.60;0.90;;;;;;;1.22;100.00;98809.16;104710;1302;24272;-34
2023/01/31 02:36:07;;;;;;;5.30;0.70;;;;;;;1.42;100.00;98803.97;104694;1302;22639;-32
2023/01/31 02:38:49;;;;;;;4.40;0.70;;;;;;;1.43;100.00;98813.44;104685;1299;22559;-35
2023/01/31 02:41:20;;;;;;;9.50;0.80;;;;;;;1.66;100.00;98812.02;104684;1301;24332;-31
2023/01/31 02:46:49;;;;;;;0.30;0.30;;;;;;;0.87;100.00;98819.43;104719;1305;22995;-35
2023/01/31 02:57:35;;;;;;;3.70;0.40;;;;;;;-0.05;100.00;98858.73;104703;1305;22815;-35
2023/01/31 03:00:02;;;;;;;2.30;0.40;;;;;;;-0.18;100.00;98862.48;104729;1305;22952;-32
2023/01/31 03:02:28;;;;;;;4.70;0.80;;;;;;;-0.23;100.00;98848.27;104680;1301;25431;-35
2023/01/31 03:04:53;;;;;;;8.40;1.00;;;;;;;0.00;100.00;98860.10;104392;1305;23133;-32
2023/01/31 03:07:25;;;;;;;0.50;0.20;;;;;;;-0.10;100.00;98863.73;104811;1301;22700;-32
2023/01/31 03:10:09;;;;;;;4.60;0.20;;;;;;;-0.08;100.00;98876.41;104774;1305;22825;-36
2023/01/31 03:12:40;;;;;;;;;;;;;;;-0.07;100.00;98902.33;104741;1305;22782;-39
2023/01/31 03:17:30;;;;;;;0.90;0.20;;;;;;;0.12;100.00;98902.19;104673;1305;23166;-32
2023/01/31 03:18:17;;;;;;;0.90;0.20;;;;;;;0.16;100.00;98911.77;104814;1302;22805;-35
2023/01/31 03:20:56;;;;;;;3.70;1.00;;;;;;;0.37;100.00;98914.96;104605;1305;24467;-32
2023/01/31 03:23:25;;;;;;;4.00;1.50;;;;;;;0.42;100.00;98916.12;104646;1305;22820;-32
2023/01/31 03:25:51;;;;;;;6.40;1.80;;;;;;;0.43;100.00;98923.59;104801;1298;23935;-34
2023/01/31 03:28:20;;;;;;;5.00;1.00;;;;;;;0.53;100.00;98928.66;104735;1301;22664;-32
2023/01/31 03:31:09;;;;;;;11.00;1.30;;;;;;;0.45;100.00;98922.63;104813;1305;22570;-35
2023/01/31 03:33:39;;;;;;;9.90;1.20;;;;;;;0.45;100.00;98925.84;104784;1305;22584;-32
2023/01/31 03:36:29;;;;;;;5.10;1.10;;;;;;;0.59;100.00;98934.25;104698;1302;23015;-32
2023/01/31 03:39:12;;;;;;;3.60;0.60;;;;;;;0.56;100.00;98938.38;104611;1305;22989;-31
2023/01/31 03:41:55;;;;;;;8.10;0.90;;;;;;;0.48;100.00;98938.60;104662;1305;22692;-35
2023/01/31 03:44:34;;;;;;;13.80;1.50;;;;;;;0.49;100.00;98938.02;104799;1301;22947;-33
2023/01/31 03:47:08;;;;;;;6.50;0.90;;;;;;;0.41;100.00;98938.20;104615;1303;25348;-34
2023/01/31 03:49:33;;;;;;;;;;;;;;;0.37;100.00;98943.32;104717;1305;25243;-33
2023/01/31 03:52:04;;;;;;;14.30;1.70;;;;;;;0.50;100.00;98944.40;104708;1302;22582;-36
2023/01/31 03:54:35;;;;;;;11.60;0.80;;;;;;;0.40;100.00;98943.52;104639;1302;22826;-33
2023/01/31 03:57:06;;;;;;;9.50;0.80;;;;;;;0.62;100.00;98942.94;104701;1298;22621;-33
2023/01/31 03:59:35;;;;;;;19.10;1.80;;;;;;;0.64;100.00;98945.02;104670;1302;25381;-36
2023/01/31 04:02:04;;;;;;;3.20;0.40;;;;;;;0.57;100.00;98943.23;104692;1301;22578;-36
2023/01/31 04:04:38;;;;;;;5.90;1.60;;;;;;;0.49;100.00;98952.19;104587;1305;23188;-33
2023/01/31 04:07:05;;;;;;;5.50;0.50;;;;;;;0.47;100.00;98954.36;104797;1305;23030;-33
2023/01/31 04:09:31;;;;;;;5.10;0.90;;;;;;;0.54;100.00;98963.36;104692;1305;22763;-36
2023/01/31 04:12:00;;;;;;;;;;;;;;;0.53;100.00;98956.40;104683;1301;22534;-32
2023/01/31 04:14:27;;;;;;;8.70;1.70;;;;;;;0.73;100.00;98959.48;104687;1305;23285;-31
2023/01/31 04:16:52;;;;;;;12.70;1.40;;;;;;;0.86;100.00;98961.30;104734;1298;22664;-33
2023/01/31 04:19:18;;;;;;;8.40;1.10;;;;;;;0.86;100.00;98969.54;104795;1305;22798;-33
2023/01/31 04:21:44;;;;;;;3.90;0.60;;;;;;;0.95;100.00;98971.73;104672;1305;23164;-30
2023/01/31 04:24:10;;;;;;;3.80;0.90;;;;;;;0.88;100.00;98977.82;104626;1305;24291;-30
2023/01/31 04:26:36;;;;;;;4.80;1.00;;;;;;;0.97;100.00;98980.63;104665;1301;22649;-30
2023/01/31 04:29:03;;;;;;;5.50;0.30;;;;;;;1.00;100.00;98979.11;104553;1305;22799;-33
2023/01/31 04:31:29;;;;;;;4.40;0.60;;;;;;;0.91;100.00;98988.30;104795;1302;22972;-31
2023/01/31 04:33:56;;;;;;;4.00;0.50;;;;;;;0.96;100.00;98989.41;104772;1305;24313;-33
2023/01/31 04:36:23;;;;;;;2.30;0.20;;;;;;;0.87;100.00;98991.46;104796;1302;22801;-32
2023/01/31 05:15:21;;;;;;;10.90;0.90;;;;;;;0.43;100.00;99020.27;104579;1296;557819;-30
2023/01/31 05:17:52;;;;;;;4.60;0.60;;;;;;;0.71;100.00;99020.67;104319;1291;463655;-31
2023/01/31 05:20:17;;;;;;;11.10;2.00;;;;;;;0.68;100.00;99023.38;104659;1301;25648;-30
2023/01/31 05:22:47;;;;;;;12.60;0.90;;;;;;;0.64;100.00;99024.77;104811;1294;22570;-31
2023/01/31 05:25:13;;;;;;;13.20;0.90;;;;;;;0.58;100.00;99027.19;104709;1291;22792;-33
2023/01/31 05:27:40;;;;;;;4.90;0.60;;;;;;;0.61;100.00;99029.55;104666;1298;22566;-30
2023/01/31 05:30:07;;;;;;;15.60;1.10;;;;;;;0.62;100.00;99029.99;104425;1304;22560;-30
2023/01/31 05:32:32;;;;;;;7.90;0.70;;;;;;;0.67;100.00;99033.84;104714;1285;22712;-31
2023/01/31 05:34:58;;;;;;;4.70;1.00;;;;;;;0.85;100.00;99033.95;104669;1295;22660;-33
2023/01/31 05:37:24;;;;;;;25.00;1.00;;;;;;;0.74;100.00;99030.73;104490;1304;23036;-34
2023/01/31 05:39:49;;;;;;;6.70;1.20;;;;;;;0.80;100.00;99032.89;104898;1301;24585;-35
2023/01/31 05:42:15;;;;;;;6.80;1.30;;;;;;;0.83;100.00;99041.36;104834;1304;22642;-31
2023/01/31 05:44:41;;;;;;;4.00;0.80;;;;;;;0.81;100.00;99035.42;104806;1304;22659;-35
2023/01/31 05:47:06;;;;;;;7.00;0.70;;;;;;;0.78;100.00;99038.19;104626;1301;22759;-34
2023/01/31 05:49:33;;;;;;;4.80;0.40;;;;;;;0.72;100.00;99046.84;104949;1304;23152;-34
2023/01/31 05:51:59;;;;;;;4.40;0.50;;;;;;;0.71;100.00;99048.83;104925;1304;23023;-33
2023/01/31 05:54:25;;;;;;;7.40;1.10;;;;;;;0.95;100.00;99049.79;104894;1298;22563;-34
2023/01/31 05:56:50;;;;;;;7.10;1.60;;;;;;;0.82;100.00;99050.11;105041;1301;22946;-31
2023/01/31 05:59:16;;;;;;;4.80;0.50;;;;;;;0.89;100.00;99061.81;104780;1301;22821;-34
2023/01/31 06:01:42;;;;;;;15.30;1.30;;;;;;;0.78;100.00;99070.27;104562;1304;22595;-32
2023/01/31 06:04:09;;;;;;;3.90;0.80;;;;;;;0.82;100.00;99079.35;104765;1304;22806;-35
2023/01/31 06:06:35;;;;;;;15.80;1.50;;;;;;;0.99;100.00;99072.16;104816;1301;22676;-31
2023/01/31 06:09:00;;;;;;;5.20;1.20;;;;;;;0.85;100.00;99077.16;104748;1297;22566;-35
2023/01/31 06:11:27;;;;;;;7.20;1.20;;;;;;;0.89;100.00;99079.18;104789;1304;22660;-34
2023/01/31 06:13:56;;;;;;;2.70;0.70;;;;;;;1.03;99.35;99087.27;104783;1304;22824;-31
2023/01/31 06:16:23;;;;;;;13.40;1.10;;;;;;;1.05;99.02;99093.99;104797;1301;22798;-35
2023/01/31 06:18:48;;;;;;;6.30;0.80;;;;;;;0.91;99.15;99095.29;104805;1301;22665;-32
2023/01/31 06:21:15;;;;;;;8.70;1.00;;;;;;;1.00;98.41;99098.46;104821;1304;23639;-31
2023/01/31 06:23:44;;;;;;;3.70;1.00;;;;;;;1.05;97.99;99108.30;104809;1304;22559;-35
2023/01/31 06:26:11;;;;;;;11.30;0.80;;;;;;;1.07;97.87;99118.08;104835;1301;25342;-32
2023/01/31 06:28:37;;;;;;;15.30;1.50;;;;;;;1.05;97.67;99120.59;104712;1301;23008;-34
2023/01/31 06:31:09;;;;;;;7.20;0.60;;;;;;;1.04;97.91;99119.30;104735;1304;24901;-32
2023/01/31 06:33:34;;;;;;;11.00;1.10;;;;;;;0.98;98.19;99121.77;104726;1304;24278;-32
2023/01/31 06:36:00;;;;;;;3.60;1.20;;;;;;;1.04;98.29;99122.98;104907;1301;22562;-32
2023/01/31 06:38:27;;;;;;;7.90;1.20;;;;;;;1.07;97.42;99132.19;104698;1304;22663;-31
2023/01/31 06:40:52;;;;;;;3.50;0.60;;;;;;;1.07;97.32;99133.92;104794;1301;22660;-35
2023/01/31 06:43:18;;;;;;;15.20;2.20;;;;;;;1.18;96.70;99131.35;104681;1304;24360;-35
2023/01/31 06:45:44;;;;;;;13.70;1.60;;;;;;;1.27;95.87;99137.57;104781;1304;22822;-31
2023/01/31 06:48:10;;;;;;;3.90;1.10;;;;;;;1.08;96.66;99144.67;104688;1301;23175;-32
2023/01/31 06:50:36;;;;;;;6.20;1.10;;;;;;;1.12;96.90;99141.95;104817;1301;22640;-34
2023/01/31 06:53:02;;;;;;;3.70;1.70;;;;;;;1.06;96.54;99143.05;104818;1304;22815;-35
2023/01/31 06:55:27;;;;;;;8.40;2.00;;;;;;;1.10;96.64;99151.02;104709;1304;22834;-32
2023/01/31 06:57:54;;;;;;;10.40;1.00;;;;;;;1.14;96.36;99158.89;104734;1304;22823;-36
2023/01/31 07:00:20;;;;;;;7.30;1.70;;;;;;;1.03;97.05;99159.25;104611;1304;22823;-32
2023/01/31 07:02:46;;;;;;;4.20;1.20;;;;;;;1.09;96.08;99163.22;104811;1298;22572;-35
2023/01/31 07:05:12;;;;;;;6.10;1.30;;;;;;;1.22;95.73;99160.95;104805;1302;24250;-32
2023/01/31 07:07:39;;;;;;;5.60;1.20;;;;;;;1.27;94.98;99158.41;104757;1298;22805;-35
2023/01/31 07:10:05;;;;;;;8.70;2.00;;;;;;;1.20;94.67;99163.64;104735;1304;22819;-35
2023/01/31 07:12:30;;;;;;;12.20;2.90;;;;;;;1.33;94.70;99165.23;104880;1302;23027;-30
2023/01/31 07:14:56;;;;;;;21.80;1.30;;;;;;;1.22;94.68;99165.15;104786;1301;25426;-35
2023/01/31 07:17:22;;;;;;;7.60;1.00;;;;;;;1.26;95.27;99166.23;104791;1304;22935;-32
2023/01/31 07:19:49;;;;;;;8.00;0.70;;;;;;;1.27;94.59;99161.88;104785;1301;22690;-33
2023/01/31 07:22:15;;;;;;;7.70;1.70;;;;;;;1.10;94.69;99161.16;104564;1304;23036;-33
2023/01/31 07:24:41;;;;;;;5.20;0.90;;;;;;;1.18;94.76;99166.33;104786;1302;22656;-30
2023/01/31 07:27:07;;;;;;;14.30;1.00;;;;;;;1.16;94.59;99160.13;104902;1304;22676;-29
2023/01/31 07:29:32;;;;;;;4.70;0.30;;;;;;;1.22;94.38;99166.04;104742;1304;23043;-38
2023/01/31 07:31:58;;;;;;;5.50;1.10;;;;;;;1.44;93.04;99171.09;104806;1304;22805;-32
2023/01/31 07:34:24;;;;;;;4.30;1.90;;;;;;;1.32;93.59;99176.63;104799;1304;23295;-40
2023/01/31 07:36:50;;;;;;;9.20;1.90;;;;;;;1.41;92.72;99171.00;104761;1304;22654;-34
2023/01/31 07:39:16;;;;;;;2.10;0.70;;;;;;;1.28;93.15;99191.63;104710;1304;22668;-31
2023/01/31 07:41:42;;;;;;;5.20;1.30;;;;;;;1.38;92.78;99188.74;104794;1304;22788;-34
2023/01/31 07:44:09;;;;;;;9.60;1.30;;;;;;;1.53;90.87;99196.23;104605;1304;22828;-31
2023/01/31 07:46:35;;;;;;;2.80;0.50;;;;;;;1.40;90.26;99189.83;104734;1301;22808;-31
2023/01/31 07:49:01;;;;;;;3.90;0.60;;;;;;;1.36;90.58;99209.23;104827;1304;24279;-31
2023/01/31 07:51:26;;;;;;;4.40;0.80;;;;;;;1.39;89.95;99221.46;104682;1301;22640;-31
2023/01/31 07:53:52;;;;;;;5.10;0.70;;;;;;;1.37;90.51;99221.36;104696;1304;23023;-31
2023/01/31 07:56:19;;;;;;;18.40;1.90;;;;;;;1.34;90.38;99225.14;104734;1304;22809;-35
2023/01/31 07:58:45;;;;;;;8.70;1.30;;;;;;;1.37;88.97;99234.59;104677;1299;22677;-35
2023/01/31 08:03:54;;;;;;;3.30;0.60;;;;;;;1.47;88.51;99245.23;104821;1302;24209;-33
2023/01/31 08:06:20;;;;;;;13.90;1.20;;;;;;;1.38;88.68;99252.23;104738;1304;22497;-32
2023/01/31 08:08:46;;;;;;;5.60;0.90;;;;;;;1.36;88.41;99250.70;104734;1304;22657;-31
2023/01/31 08:11:12;;;;;;;4.90;1.90;;;;;;;1.46;87.86;99253.15;104807;1302;22798;-35
2023/01/31 08:13:38;;;;;;;7.10;1.40;;;;;;;1.47;87.09;99256.56;104717;1304;22822;-31
2023/01/31 08:16:05;;;;;;;7.20;1.30;;;;;;;1.40;88.05;99259.50;104818;1304;22560;-31
2023/01/31 08:18:31;;;;;;;7.80;0.80;;;;;;;1.30;88.19;99261.27;104748;1300;22545;-31
2023/01/31 08:20:57;;;;;;;2.40;0.70;;;;;;;1.28;87.94;99263.05;104909;1302;25336;-34
2023/01/31 08:23:23;;;;;;;11.70;2.20;;;;;;;1.26;87.38;99261.69;104579;1304;22786;-30
2023/01/31 08:25:49;;;;;;;3.30;1.00;;;;;;;1.24;87.92;99267.64;104726;1304;26535;-31
2023/01/31 08:28:15;;;;;;;22.40;1.20;;;;;;;1.26;88.12;99268.17;104749;1304;22764;-31
2023/01/31 08:30:41;;;;;;;4.70;0.60;;;;;;;1.25;88.29;99271.83;104843;1301;22886;-31
2023/01/31 08:33:08;;;;;;;9.10;1.40;;;;;;;1.32;87.47;99272.21;104735;1302;22939;-31
2023/01/31 08:35:34;;;;;;;10.10;2.90;;;;;;;1.43;87.43;99267.55;104734;1301;22680;-34
2023/01/31 08:37:59;;;;;;;12.30;2.00;;;;;;;1.53;86.97;99263.38;104774;1304;22559;-34
2023/01/31 08:40:25;;;;;;;20.40;3.10;;;;;;;1.64;86.52;99273.14;104762;1304;23164;-31
2023/01/31 08:42:55;;;;;;;14.50;3.40;;;;;;;1.53;87.13;99280.34;104933;1302;22790;-32
2023/01/31 08:45:21;;;;;;;12.70;3.20;;;;;;;1.60;87.59;99286.05;104759;1301;22657;-35
2023/01/31 08:47:47;;;;;;;5.50;0.50;;;;;;;1.86;86.49;99284.89;104710;1304;22840;-30
2023/01/31 08:50:13;;;;;;;3.10;0.70;;;;;;;1.64;86.60;99285.34;104814;1304;22634;-30
2023/01/31 08:52:38;;;;;;;4.40;1.50;;;;;;;1.62;86.91;99293.06;104763;1304;22584;-34
2023/01/31 08:55:07;;;;;;;6.50;1.30;;;;;;;1.76;86.57;99303.48;104744;1304;23134;-30
2023/01/31 08:57:33;;;;;;;8.30;1.00;;;;;;;1.80;86.13;99296.20;104778;1301;22671;-30
2023/01/31 08:59:58;;;;;;;7.50;1.20;;;;;;;1.94;84.58;99298.79;104817;1304;22669;-33
2023/01/31 09:02:24;;;;;;;1.20;0.70;;;;;;;1.91;84.00;99293.02;104705;1301;24465;-30
2023/01/31 09:04:51;;;;;;;4.60;1.10;;;;;;;1.92;84.63;99293.14;104778;1304;23029;-33
2023/01/31 09:07:20;;;;;;;4.30;1.10;;;;;;;1.83;85.71;99299.03;104868;1304;22878;-32
2023/01/31 09:09:47;;;;;;;4.40;0.70;;;;;;;1.83;85.36;99298.21;104812;1304;22561;-32
2023/01/31 09:12:13;;;;;;;7.10;0.80;;;;;;;1.74;86.23;99294.83;104779;1304;22664;-30
2023/01/31 09:14:39;;;;;;;9.00;1.00;;;;;;;1.76;85.16;99306.61;104698;1302;24308;-34
2023/01/31 09:17:06;;;;;;;7.10;1.90;;;;;;;1.73;86.05;99300.05;104754;1301;23165;-34
2023/01/31 09:19:32;;;;;;;9.20;0.70;;;;;;;1.77;85.31;99301.63;104854;1304;22583;-30
2023/01/31 09:21:58;;;;;;;9.10;0.50;;;;;;;1.73;85.25;99309.55;104784;1304;22664;-30
2023/01/31 09:24:23;;;;;;;5.30;0.90;;;;;;;1.87;85.32;99311.60;104551;1304;23177;-31
2023/01/31 09:26:49;;;;;;;3.40;1.30;;;;;;;1.79;86.91;99311.63;104878;1302;22815;-30
2023/01/31 09:29:15;;;;;;;9.80;2.90;;;;;;;1.78;85.61;99301.98;104797;1304;22981;-34
2023/01/31 09:31:41;;;;;;;14.70;4.40;;;;;;;2.05;84.93;99316.27;104754;1304;23176;-30
2023/01/31 09:34:07;;;;;;;28.00;9.60;;;;;;;2.20;84.69;99309.58;104578;1304;22825;-35
2023/01/31 09:36:33;;;;;;;12.60;3.80;;;;;;;2.23;84.49;99309.95;104743;1304;22608;-30
2023/01/31 09:38:58;;;;;;;10.40;3.30;;;;;;;2.32;84.38;99315.14;104743;1304;22709;-34
2023/01/31 09:41:39;;;;;;;32.60;12.40;;;;;;;2.19;85.81;99316.70;104820;1304;22656;-31
2023/01/31 09:44:16;;;;;;;15.20;4.40;;;;;;;2.22;86.49;99321.70;104737;1304;22996;-32
2023/01/31 09:46:45;;;;;;;30.10;10.60;;;;;;;2.24;86.38;99316.57;104626;1304;22641;-33
2023/01/31 09:49:15;;;;;;;16.30;3.50;;;;;;;2.39;84.55;99320.08;104855;1304;22675;-31
2023/01/31 09:51:41;;;;;;;12.30;2.70;;;;;;;2.22;84.69;99328.82;104783;1304;22664;-30
2023/01/31 09:54:14;;;;;;;11.10;0.90;;;;;;;2.08;84.74;99320.89;104718;1304;22789;-30
2023/01/31 09:56:49;;;;;;;1.30;0.60;;;;;;;2.09;85.85;99324.73;104732;1298;25407;-33
2023/01/31 09:59:31;;;;;;;3.20;0.70;;;;;;;2.17;84.77;99315.69;104853;1304;24222;-33
2023/01/31 10:02:13;;;;;;;2.50;0.50;;;;;;;2.12;85.00;99320.54;104769;1304;24303;-33
2023/01/31 10:05:02;;;;;;;2.50;0.60;;;;;;;1.99;85.91;99319.32;104748;1304;22574;-33
2023/01/31 10:07:33;;;;;;;8.40;1.10;;;;;;;2.17;85.65;99312.49;104775;1302;22654;-29
2023/01/31 10:10:16;;;;;;;1.40;0.60;;;;;;;2.14;85.71;99314.90;104935;1304;22660;-33
2023/01/31 10:12:51;;;;;;;10.10;0.50;;;;;;;2.42;84.24;99308.21;104746;1298;22939;-29
2023/01/31 10:15:34;;;;;;;2.60;0.90;;;;;;;2.22;84.87;99319.64;104816;1304;23947;-34
2023/01/31 10:18:07;;;;;;;4.30;1.10;;;;;;;2.42;85.48;99323.52;104647;1304;22666;-30
2023/01/31 10:20:45;;;;;;;13.30;2.30;;;;;;;2.59;84.87;99325.45;104652;1304;23040;-33
2023/01/31 10:23:32;;;;;;;5.20;2.20;;;;;;;2.54;84.81;99324.89;104598;1304;22572;-30
2023/01/31 10:26:05;;;;;;;8.10;1.10;;;;;;;2.46;84.64;99329.00;104705;1303;22610;-35
2023/01/31 10:28:38;;;;;;;4.60;0.90;;;;;;;2.34;85.86;99321.70;104613;1304;22769;-32
2023/01/31 10:31:26;;;;;;;12.00;1.10;;;;;;;2.38;86.25;99327.65;104765;1301;24294;-30
2023/01/31 10:34:06;;;;;;;4.90;1.00;;;;;;;2.36;85.68;99318.13;104720;1304;22680;-33
2023/01/31 10:36:49;;;;;;;13.80;0.70;;;;;;;2.28;87.86;99323.48;104729;1301;23030;-33
2023/01/31 10:39:32;;;;;;;1.10;0.60;;;;;;;2.15;88.13;99319.02;104982;1304;22652;-33
2023/01/31 10:42:08;;;;;;;5.70;0.90;;;;;;;2.69;86.47;99317.10;104767;1304;24197;-29
2023/01/31 10:45:02;;;;;;;18.10;3.30;;;;;;;3.06;85.55;99317.77;104827;1298;22565;-34
2023/01/31 10:47:33;;;;;;;4.60;0.50;;;;;;;2.90;82.88;99315.03;104847;1304;23329;-30
2023/01/31 10:49:59;;;;;;;3.00;0.40;;;;;;;2.82;83.02;99304.34;104632;1304;22798;-33
2023/01/31 10:52:42;;;;;;;6.20;1.00;;;;;;;2.55;83.26;99304.33;104864;1304;24235;-32
2023/01/31 10:55:27;;;;;;;3.80;0.40;;;;;;;2.56;83.48;99298.56;104734;1304;22796;-30
2023/01/31 10:57:53;;;;;;;3.60;1.10;;;;;;;2.63;82.63;99297.84;104757;1304;22786;-29
2023/01/31 11:00:25;;;;;;;2.70;0.60;;;;;;;2.66;83.07;99300.71;104721;1301;25360;-29
2023/01/31 11:02:51;;;;;;;8.30;0.80;;;;;;;2.58;82.46;99292.30;104771;1304;24190;-30
2023/01/31 11:44:57;;;;;;;4.30;1.90;;;;;;;3.19;86.72;99238.70;104444;1296;556588;-31
2023/01/31 11:47:31;;;;;;;2.40;0.60;;;;;;;3.57;84.87;99235.42;104356;1304;422842;-30
2023/01/31 11:49:58;;;;;;;10.10;1.20;;;;;;;3.70;82.90;99232.16;104548;1305;24281;-30
2023/01/31 11:52:29;;;;;;;3.70;1.30;;;;;;;3.51;84.11;99230.60;104723;1295;22669;-33
2023/01/31 11:54:57;;;;;;;5.20;2.30;;;;;;;3.68;83.71;99230.61;104531;1302;22695;-29
2023/01/31 11:57:23;;;;;;;17.30;5.20;;;;;;;3.66;84.86;99229.21;104543;1290;22804;-29
2023/01/31 11:59:50;;;;;;;4.50;0.40;;;;;;;3.51;85.81;99231.81;104424;1305;24298;-32
2023/01/31 12:02:42;;;;;;;5.70;0.80;;;;;;;3.56;85.78;99230.48;104602;1295;22702;-30
2023/01/31 12:05:09;;;;;;;9.90;1.20;;;;;;;3.67;84.94;99220.44;104401;1305;22666;-29
2023/01/31 12:07:46;;;;;;;5.40;1.30;;;;;;;4.01;79.69;99221.08;104123;1305;22650;-29
2023/01/31 12:10:36;;;;;;;0.20;0.00;;;;;;;3.89;78.26;99209.49;104554;1302;22798;-29
2023/01/31 12:13:12;;;;;;;3.20;0.50;;;;;;;3.79;78.36;99212.30;104650;1302;22646;-29
2023/01/31 12:15:44;;;;;;;0.70;0.40;;;;;;;3.55;79.11;99219.19;104491;1304;22676;-34
2023/01/31 12:18:09;;;;;;;1.50;0.30;;;;;;;3.55;76.67;99217.02;104608;1294;24450;-29
2023/01/31 12:20:43;;;;;;;5.00;1.20;;;;;;;3.43;79.55;99215.63;104542;1302;24326;-29
2023/01/31 12:23:33;;;;;;;2.70;0.40;;;;;;;3.48;79.84;99204.84;104462;1293;22618;-29
2023/01/31 12:26:08;;;;;;;1.30;0.40;;;;;;;3.23;81.38;99206.84;104456;1303;22668;-29
2023/01/31 12:28:50;;;;;;;3.40;1.00;;;;;;;3.36;80.80;99208.89;104433;1304;22634;-35
2023/01/31 12:31:32;;;;;;;4.70;1.10;;;;;;;3.36;80.73;99204.61;104366;1304;22657;-33
2023/01/31 12:34:10;;;;;;;9.70;0.90;;;;;;;3.45;80.05;99194.89;104448;1305;22671;-33
2023/01/31 12:36:44;;;;;;;2.30;1.50;;;;;;;3.20;81.75;99190.14;104481;1301;22679;-33
2023/01/31 12:39:21;;;;;;;;;;;;;;;3.41;82.03;99192.90;104083;1305;22799;-34
2023/01/31 12:42:03;;;;;;;3.70;0.80;;;;;;;3.71;81.22;99182.30;104556;1300;22825;-37
2023/01/31 12:44:39;;;;;;;7.70;0.90;;;;;;;3.27;83.91;99197.23;104486;1305;25361;-32
2023/01/31 12:47:32;;;;;;;1.60;0.40;;;;;;;3.32;85.40;99198.52;104504;1301;22619;-33
2023/01/31 12:50:08;;;;;;;5.30;0.60;;;;;;;3.06;86.98;99186.93;104492;1299;22640;-37
2023/01/31 12:52:40;;;;;;;5.50;0.30;;;;;;;2.68;89.53;99195.02;104421;1296;23916;-29
2023/01/31 12:55:17;;;;;;;28.90;1.50;;;;;;;2.95;89.82;99189.67;104502;1290;24254;-33
2023/01/31 12:58:10;;;;;;;6.00;1.80;;;;;;;3.03;89.70;99180.23;104497;1282;22569;-34
2023/01/31 13:00:53;;;;;;;9.40;1.70;;;;;;;2.84;90.82;99182.98;104400;1302;22574;-34
2023/01/31 13:03:35;;;;;;;8.20;1.10;;;;;;;2.88;90.10;99181.39;104397;1296;22777;-33
2023/01/31 13:06:14;;;;;;;14.70;1.80;;;;;;;2.89;90.32;99180.92;104383;1305;22695;-34
2023/01/31 13:08:48;;;;;;;2.60;1.00;;;;;;;2.73;91.47;99178.64;104382;1302;24269;-29
2023/01/31 13:11:19;;;;;;;7.00;1.60;;;;;;;2.64;92.00;99170.98;104407;1305;22675;-33
2023/01/31 13:13:52;;;;;;;7.50;1.20;;;;;;;2.75;92.39;99173.05;104449;1292;22667;-29